sensor_id;sensor_type;location;lat;lon;timestamp;P1;durP1;ratioP1;P2;durP2;ratioP2
71648;SDS011;59492;45.638;11.714;2022-10-31T00:02:00;3.60;;;2.60;;
71648;SDS011;59492;45.638;11.714;2022-10-31T00:04:25;4.30;;;2.80;;
71648;SDS011;59492;45.638;11.714;2022-10-31T00:06:51;4.60;;;3.10;;
71648;SDS011;59492;45.638;11.714;2022-10-31T00:09:16;5.00;;;2.80;;
71648;SDS011;59492;45.638;11.714;2022-10-31T00:11:42;5.90;;;3.10;;
71648;SDS011;59492;45.638;11.714;2022-10-31T00:14:07;4.60;;;2.80;;
71648;SDS011;59492;45.638;11.714;2022-10-31T00:16:33;3.80;;;2.90;;
71648;SDS011;59492;45.638;11.714;2022-10-31T00:18:59;3.70;;;3.00;;
71648;SDS011;59492;45.638;11.714;2022-10-31T00:21:27;6.60;;;2.90;;
71648;SDS011;59492;45.638;11.714;2022-10-31T00:23:53;4.70;;;2.70;;
71648;SDS011;59492;45.638;11.714;2022-10-31T00:26:19;3.50;;;2.60;;
71648;SDS011;59492;45.638;11.714;2022-10-31T00:28:45;4.40;;;2.90;;
71648;SDS011;59492;45.638;11.714;2022-10-31T00:31:11;2.90;;;2.60;;
71648;SDS011;59492;45.638;11.714;2022-10-31T00:33:38;3.70;;;2.90;;
71648;SDS011;59492;45.638;11.714;2022-10-31T00:36:05;5.60;;;3.20;;
71648;SDS011;59492;45.638;11.714;2022-10-31T00:38:32;4.80;;;3.00;;
71648;SDS011;59492;45.638;11.714;2022-10-31T00:40:58;4.20;;;2.90;;
71648;SDS011;59492;45.638;11.714;2022-10-31T00:43:24;5.70;;;3.10;;
71648;SDS011;59492;45.638;11.714;2022-10-31T00:45:49;3.40;;;2.70;;
71648;SDS011;59492;45.638;11.714;2022-10-31T00:48:15;5.50;;;3.60;;
71648;SDS011;59492;45.638;11.714;2022-10-31T00:50:40;6.30;;;3.10;;
71648;SDS011;59492;45.638;11.714;2022-10-31T00:53:06;3.80;;;2.80;;
71648;SDS011;59492;45.638;11.714;2022-10-31T00:55:32;4.80;;;3.10;;
71648;SDS011;59492;45.638;11.714;2022-10-31T00:57:58;4.90;;;2.70;;
71648;SDS011;59492;45.638;11.714;2022-10-31T01:00:24;3.50;;;2.70;;
71648;SDS011;59492;45.638;11.714;2022-10-31T01:02:50;3.00;;;2.70;;
71648;SDS011;59492;45.638;11.714;2022-10-31T01:05:15;5.30;;;3.00;;
71648;SDS011;59492;45.638;11.714;2022-10-31T01:07:41;3.60;;;2.90;;
71648;SDS011;59492;45.638;11.714;2022-10-31T01:10:08;5.70;;;2.90;;
71648;SDS011;59492;45.638;11.714;2022-10-31T01:12:42;4.50;;;2.90;;
71648;SDS011;59492;45.638;11.714;2022-10-31T01:15:10;4.40;;;3.00;;
71648;SDS011;59492;45.638;11.714;2022-10-31T01:17:37;3.70;;;2.50;;
71648;SDS011;59492;45.638;11.714;2022-10-31T01:20:04;3.10;;;2.60;;
71648;SDS011;59492;45.638;11.714;2022-10-31T01:22:30;4.40;;;2.90;;
71648;SDS011;59492;45.638;11.714;2022-10-31T01:24:56;4.00;;;3.20;;
71648;SDS011;59492;45.638;11.714;2022-10-31T01:27:22;5.40;;;3.40;;
71648;SDS011;59492;45.638;11.714;2022-10-31T01:29:47;3.80;;;2.60;;
71648;SDS011;59492;45.638;11.714;2022-10-31T01:32:13;5.00;;;2.80;;
71648;SDS011;59492;45.638;11.714;2022-10-31T01:37:09;2.80;;;2.60;;
71648;SDS011;59492;45.638;11.714;2022-10-31T01:39:34;3.00;;;2.60;;
71648;SDS011;59492;45.638;11.714;2022-10-31T01:42:00;5.80;;;2.80;;
71648;SDS011;59492;45.638;11.714;2022-10-31T01:47:03;3.10;;;2.70;;
71648;SDS011;59492;45.638;11.714;2022-10-31T01:49:46;3.90;;;2.70;;
71648;SDS011;59492;45.638;11.714;2022-10-31T01:52:18;4.60;;;2.80;;
71648;SDS011;59492;45.638;11.714;2022-10-31T01:57:24;3.80;;;2.80;;
71648;SDS011;59492;45.638;11.714;2022-10-31T01:59:52;4.70;;;2.80;;
71648;SDS011;59492;45.638;11.714;2022-10-31T02:02:22;3.50;;;2.90;;
71648;SDS011;59492;45.638;11.714;2022-10-31T02:04:50;4.20;;;2.70;;
71648;SDS011;59492;45.638;11.714;2022-10-31T02:07:22;4.20;;;2.80;;
71648;SDS011;59492;45.638;11.714;2022-10-31T02:09:55;3.30;;;2.70;;
71648;SDS011;59492;45.638;11.714;2022-10-31T02:12:22;2.40;;;2.20;;
71648;SDS011;59492;45.638;11.714;2022-10-31T02:14:48;4.10;;;3.00;;
71648;SDS011;59492;45.638;11.714;2022-10-31T02:17:14;3.20;;;2.70;;
71648;SDS011;59492;45.638;11.714;2022-10-31T02:28:57;4.30;;;2.70;;
71648;SDS011;59492;45.638;11.714;2022-10-31T02:34:07;3.30;;;2.50;;
71648;SDS011;59492;45.638;11.714;2022-10-31T02:36:42;3.60;;;3.00;;
71648;SDS011;59492;45.638;11.714;2022-10-31T02:39:22;3.30;;;2.90;;
71648;SDS011;59492;45.638;11.714;2022-10-31T02:44:39;5.70;;;2.70;;
71648;SDS011;59492;45.638;11.714;2022-10-31T02:52:19;3.30;;;2.60;;
71648;SDS011;59492;45.638;11.714;2022-10-31T02:54:46;3.70;;;2.60;;
71648;SDS011;59492;45.638;11.714;2022-10-31T02:57:13;3.30;;;2.90;;
71648;SDS011;59492;45.638;11.714;2022-10-31T02:59:44;3.40;;;2.80;;
71648;SDS011;59492;45.638;11.714;2022-10-31T03:08:06;3.50;;;2.80;;
71648;SDS011;59492;45.638;11.714;2022-10-31T03:16:13;2.90;;;2.60;;
71648;SDS011;59492;45.638;11.714;2022-10-31T03:18:44;4.50;;;2.80;;
71648;SDS011;59492;45.638;11.714;2022-10-31T03:24:24;3.20;;;2.80;;
71648;SDS011;59492;45.638;11.714;2022-10-31T03:26:53;3.60;;;2.50;;
71648;SDS011;59492;45.638;11.714;2022-10-31T03:29:23;4.80;;;2.60;;
71648;SDS011;59492;45.638;11.714;2022-10-31T03:34:20;2.80;;;2.60;;
71648;SDS011;59492;45.638;11.714;2022-10-31T03:36:48;5.80;;;3.10;;
71648;SDS011;59492;45.638;11.714;2022-10-31T03:39:17;3.30;;;2.80;;
71648;SDS011;59492;45.638;11.714;2022-10-31T03:41:48;3.20;;;2.40;;
71648;SDS011;59492;45.638;11.714;2022-10-31T03:44:19;3.30;;;2.80;;
71648;SDS011;59492;45.638;11.714;2022-10-31T03:46:47;3.00;;;2.60;;
71648;SDS011;59492;45.638;11.714;2022-10-31T03:49:13;3.90;;;2.80;;
71648;SDS011;59492;45.638;11.714;2022-10-31T03:54:09;3.70;;;2.90;;
71648;SDS011;59492;45.638;11.714;2022-10-31T03:56:55;2.70;;;2.50;;
71648;SDS011;59492;45.638;11.714;2022-10-31T03:59:24;3.30;;;2.60;;
71648;SDS011;59492;45.638;11.714;2022-10-31T04:01:55;3.00;;;2.40;;
71648;SDS011;59492;45.638;11.714;2022-10-31T04:04:24;3.00;;;2.50;;
71648;SDS011;59492;45.638;11.714;2022-10-31T04:06:51;4.40;;;3.10;;
71648;SDS011;59492;45.638;11.714;2022-10-31T04:09:18;3.50;;;2.80;;
71648;SDS011;59492;45.638;11.714;2022-10-31T04:11:46;2.90;;;2.40;;
71648;SDS011;59492;45.638;11.714;2022-10-31T04:14:15;4.00;;;2.60;;
71648;SDS011;59492;45.638;11.714;2022-10-31T04:16:41;3.00;;;2.50;;
71648;SDS011;59492;45.638;11.714;2022-10-31T04:19:09;3.40;;;2.60;;
71648;SDS011;59492;45.638;11.714;2022-10-31T04:21:36;3.20;;;2.50;;
71648;SDS011;59492;45.638;11.714;2022-10-31T04:24:03;3.90;;;2.60;;
71648;SDS011;59492;45.638;11.714;2022-10-31T04:26:29;3.00;;;2.60;;
71648;SDS011;59492;45.638;11.714;2022-10-31T04:28:54;4.90;;;3.60;;
71648;SDS011;59492;45.638;11.714;2022-10-31T04:31:20;3.10;;;2.70;;
71648;SDS011;59492;45.638;11.714;2022-10-31T04:33:45;2.90;;;2.60;;
71648;SDS011;59492;45.638;11.714;2022-10-31T04:36:11;2.80;;;2.50;;
71648;SDS011;59492;45.638;11.714;2022-10-31T04:38:37;3.30;;;2.60;;
71648;SDS011;59492;45.638;11.714;2022-10-31T04:41:02;2.70;;;2.50;;
71648;SDS011;59492;45.638;11.714;2022-10-31T04:43:28;3.40;;;2.90;;
71648;SDS011;59492;45.638;11.714;2022-10-31T04:45:53;3.10;;;2.70;;
71648;SDS011;59492;45.638;11.714;2022-10-31T04:48:19;3.10;;;2.70;;
71648;SDS011;59492;45.638;11.714;2022-10-31T04:50:45;3.00;;;2.70;;
71648;SDS011;59492;45.638;11.714;2022-10-31T04:53:10;2.50;;;2.30;;
71648;SDS011;59492;45.638;11.714;2022-10-31T04:55:36;8.80;;;2.90;;
71648;SDS011;59492;45.638;11.714;2022-10-31T04:58:02;3.90;;;2.30;;
71648;SDS011;59492;45.638;11.714;2022-10-31T05:00:27;2.70;;;2.40;;
71648;SDS011;59492;45.638;11.714;2022-10-31T05:02:54;3.40;;;2.70;;
71648;SDS011;59492;45.638;11.714;2022-10-31T05:05:22;2.80;;;2.50;;
71648;SDS011;59492;45.638;11.714;2022-10-31T05:07:50;3.60;;;2.40;;
71648;SDS011;59492;45.638;11.714;2022-10-31T05:10:17;3.30;;;2.50;;
71648;SDS011;59492;45.638;11.714;2022-10-31T05:12:45;3.00;;;2.60;;
71648;SDS011;59492;45.638;11.714;2022-10-31T05:15:13;3.10;;;2.50;;
71648;SDS011;59492;45.638;11.714;2022-10-31T05:17:38;3.30;;;2.60;;
71648;SDS011;59492;45.638;11.714;2022-10-31T05:20:04;2.90;;;2.60;;
71648;SDS011;59492;45.638;11.714;2022-10-31T05:22:30;2.50;;;2.30;;
71648;SDS011;59492;45.638;11.714;2022-10-31T05:24:55;4.10;;;2.80;;
71648;SDS011;59492;45.638;11.714;2022-10-31T05:27:21;2.90;;;2.50;;
71648;SDS011;59492;45.638;11.714;2022-10-31T05:29:46;2.70;;;2.50;;
71648;SDS011;59492;45.638;11.714;2022-10-31T05:32:12;3.00;;;2.50;;
71648;SDS011;59492;45.638;11.714;2022-10-31T05:34:37;4.50;;;2.80;;
71648;SDS011;59492;45.638;11.714;2022-10-31T05:37:03;4.30;;;2.50;;
71648;SDS011;59492;45.638;11.714;2022-10-31T05:39:29;3.00;;;2.40;;
71648;SDS011;59492;45.638;11.714;2022-10-31T05:41:54;2.80;;;2.60;;
71648;SDS011;59492;45.638;11.714;2022-10-31T05:44:20;3.10;;;2.60;;
71648;SDS011;59492;45.638;11.714;2022-10-31T05:46:46;2.90;;;2.50;;
71648;SDS011;59492;45.638;11.714;2022-10-31T05:49:12;3.40;;;2.40;;
71648;SDS011;59492;45.638;11.714;2022-10-31T05:51:38;4.10;;;2.60;;
71648;SDS011;59492;45.638;11.714;2022-10-31T05:54:03;4.20;;;2.80;;
71648;SDS011;59492;45.638;11.714;2022-10-31T05:56:29;2.90;;;2.40;;
71648;SDS011;59492;45.638;11.714;2022-10-31T05:58:54;2.70;;;2.50;;
71648;SDS011;59492;45.638;11.714;2022-10-31T06:01:20;2.60;;;2.30;;
71648;SDS011;59492;45.638;11.714;2022-10-31T06:03:46;3.60;;;2.50;;
71648;SDS011;59492;45.638;11.714;2022-10-31T06:06:11;3.70;;;2.90;;
71648;SDS011;59492;45.638;11.714;2022-10-31T06:08:37;4.20;;;2.40;;
71648;SDS011;59492;45.638;11.714;2022-10-31T06:11:02;2.80;;;2.40;;
71648;SDS011;59492;45.638;11.714;2022-10-31T06:13:28;3.40;;;2.60;;
71648;SDS011;59492;45.638;11.714;2022-10-31T06:15:53;4.30;;;2.90;;
71648;SDS011;59492;45.638;11.714;2022-10-31T06:18:19;6.10;;;2.70;;
71648;SDS011;59492;45.638;11.714;2022-10-31T06:20:45;5.20;;;2.30;;
71648;SDS011;59492;45.638;11.714;2022-10-31T06:23:10;4.20;;;2.70;;
71648;SDS011;59492;45.638;11.714;2022-10-31T06:25:36;4.50;;;2.40;;
71648;SDS011;59492;45.638;11.714;2022-10-31T06:28:01;4.90;;;2.70;;
71648;SDS011;59492;45.638;11.714;2022-10-31T06:30:27;3.00;;;2.50;;
71648;SDS011;59492;45.638;11.714;2022-10-31T06:32:53;3.70;;;2.50;;
71648;SDS011;59492;45.638;11.714;2022-10-31T06:35:18;3.60;;;2.80;;
71648;SDS011;59492;45.638;11.714;2022-10-31T06:37:50;3.20;;;2.50;;
71648;SDS011;59492;45.638;11.714;2022-10-31T06:40:17;3.10;;;2.40;;
71648;SDS011;59492;45.638;11.714;2022-10-31T06:42:42;3.20;;;2.20;;
71648;SDS011;59492;45.638;11.714;2022-10-31T06:45:09;3.60;;;2.20;;
71648;SDS011;59492;45.638;11.714;2022-10-31T06:47:35;9.20;;;2.90;;
71648;SDS011;59492;45.638;11.714;2022-10-31T06:50:01;4.70;;;2.60;;
71648;SDS011;59492;45.638;11.714;2022-10-31T06:52:26;3.50;;;2.50;;
71648;SDS011;59492;45.638;11.714;2022-10-31T06:54:52;4.90;;;3.00;;
71648;SDS011;59492;45.638;11.714;2022-10-31T06:57:17;8.40;;;2.70;;
71648;SDS011;59492;45.638;11.714;2022-10-31T06:59:43;4.80;;;2.90;;
71648;SDS011;59492;45.638;11.714;2022-10-31T07:02:09;5.20;;;3.10;;
71648;SDS011;59492;45.638;11.714;2022-10-31T07:04:36;7.40;;;3.00;;
71648;SDS011;59492;45.638;11.714;2022-10-31T07:07:03;3.30;;;2.40;;
71648;SDS011;59492;45.638;11.714;2022-10-31T07:09:32;11.00;;;3.00;;
71648;SDS011;59492;45.638;11.714;2022-10-31T07:12:03;5.70;;;2.40;;
71648;SDS011;59492;45.638;11.714;2022-10-31T07:14:31;3.70;;;2.30;;
71648;SDS011;59492;45.638;11.714;2022-10-31T07:16:57;5.10;;;2.70;;
71648;SDS011;59492;45.638;11.714;2022-10-31T07:19:23;4.00;;;2.70;;
71648;SDS011;59492;45.638;11.714;2022-10-31T07:21:49;3.70;;;2.90;;
71648;SDS011;59492;45.638;11.714;2022-10-31T07:24:15;3.00;;;2.60;;
71648;SDS011;59492;45.638;11.714;2022-10-31T07:26:41;5.10;;;2.70;;
71648;SDS011;59492;45.638;11.714;2022-10-31T07:29:07;4.40;;;2.80;;
71648;SDS011;59492;45.638;11.714;2022-10-31T07:31:32;5.20;;;2.40;;
71648;SDS011;59492;45.638;11.714;2022-10-31T07:33:58;4.70;;;2.30;;
71648;SDS011;59492;45.638;11.714;2022-10-31T07:36:24;5.90;;;2.60;;
71648;SDS011;59492;45.638;11.714;2022-10-31T07:38:49;7.80;;;2.60;;
71648;SDS011;59492;45.638;11.714;2022-10-31T07:41:22;9.70;;;2.50;;
71648;SDS011;59492;45.638;11.714;2022-10-31T07:43:48;4.10;;;2.50;;
71648;SDS011;59492;45.638;11.714;2022-10-31T07:46:19;9.30;;;2.70;;
71648;SDS011;59492;45.638;11.714;2022-10-31T07:48:53;4.90;;;2.60;;
71648;SDS011;59492;45.638;11.714;2022-10-31T07:51:19;5.20;;;2.60;;
71648;SDS011;59492;45.638;11.714;2022-10-31T07:53:44;3.80;;;2.80;;
71648;SDS011;59492;45.638;11.714;2022-10-31T07:56:10;4.60;;;2.70;;
71648;SDS011;59492;45.638;11.714;2022-10-31T07:58:35;5.60;;;3.20;;
71648;SDS011;59492;45.638;11.714;2022-10-31T08:01:02;3.60;;;2.70;;
71648;SDS011;59492;45.638;11.714;2022-10-31T08:03:32;8.40;;;3.00;;
71648;SDS011;59492;45.638;11.714;2022-10-31T08:05:58;8.20;;;3.00;;
71648;SDS011;59492;45.638;11.714;2022-10-31T08:08:23;6.00;;;2.80;;
71648;SDS011;59492;45.638;11.714;2022-10-31T08:10:49;6.60;;;2.90;;
71648;SDS011;59492;45.638;11.714;2022-10-31T08:13:15;5.80;;;2.70;;
71648;SDS011;59492;45.638;11.714;2022-10-31T08:15:40;7.10;;;3.00;;
71648;SDS011;59492;45.638;11.714;2022-10-31T08:18:10;5.10;;;2.90;;
71648;SDS011;59492;45.638;11.714;2022-10-31T08:20:38;9.70;;;3.20;;
71648;SDS011;59492;45.638;11.714;2022-10-31T08:23:04;5.20;;;3.10;;
71648;SDS011;59492;45.638;11.714;2022-10-31T08:25:31;9.60;;;3.30;;
71648;SDS011;59492;45.638;11.714;2022-10-31T08:27:58;7.70;;;2.80;;
71648;SDS011;59492;45.638;11.714;2022-10-31T08:30:24;4.90;;;2.90;;
71648;SDS011;59492;45.638;11.714;2022-10-31T08:35:32;10.20;;;2.90;;
71648;SDS011;59492;45.638;11.714;2022-10-31T08:37:58;4.50;;;2.70;;
71648;SDS011;59492;45.638;11.714;2022-10-31T08:40:25;7.80;;;2.80;;
71648;SDS011;59492;45.638;11.714;2022-10-31T08:42:58;4.70;;;2.80;;
71648;SDS011;59492;45.638;11.714;2022-10-31T08:45:25;5.10;;;2.80;;
71648;SDS011;59492;45.638;11.714;2022-10-31T08:47:52;5.00;;;2.80;;
71648;SDS011;59492;45.638;11.714;2022-10-31T08:50:21;3.60;;;2.50;;
71648;SDS011;59492;45.638;11.714;2022-10-31T08:52:47;6.50;;;3.20;;
71648;SDS011;59492;45.638;11.714;2022-10-31T08:55:12;4.60;;;2.70;;
71648;SDS011;59492;45.638;11.714;2022-10-31T08:57:38;4.00;;;2.20;;
71648;SDS011;59492;45.638;11.714;2022-10-31T09:00:04;4.70;;;2.90;;
71648;SDS011;59492;45.638;11.714;2022-10-31T09:02:30;5.70;;;2.90;;
71648;SDS011;59492;45.638;11.714;2022-10-31T09:04:56;3.90;;;2.80;;
71648;SDS011;59492;45.638;11.714;2022-10-31T09:07:21;6.50;;;2.70;;
71648;SDS011;59492;45.638;11.714;2022-10-31T09:09:47;5.60;;;2.50;;
71648;SDS011;59492;45.638;11.714;2022-10-31T09:12:12;5.00;;;2.50;;
71648;SDS011;59492;45.638;11.714;2022-10-31T09:14:38;4.30;;;3.30;;
71648;SDS011;59492;45.638;11.714;2022-10-31T09:17:03;5.60;;;2.60;;
71648;SDS011;59492;45.638;11.714;2022-10-31T09:19:31;4.10;;;2.50;;
71648;SDS011;59492;45.638;11.714;2022-10-31T09:21:57;5.90;;;2.70;;
71648;SDS011;59492;45.638;11.714;2022-10-31T09:24:22;4.00;;;2.50;;
71648;SDS011;59492;45.638;11.714;2022-10-31T09:26:48;7.40;;;2.40;;
71648;SDS011;59492;45.638;11.714;2022-10-31T09:29:14;4.50;;;2.40;;
71648;SDS011;59492;45.638;11.714;2022-10-31T09:31:39;4.70;;;2.60;;
71648;SDS011;59492;45.638;11.714;2022-10-31T09:34:05;4.00;;;2.80;;
71648;SDS011;59492;45.638;11.714;2022-10-31T09:36:30;7.50;;;2.80;;
71648;SDS011;59492;45.638;11.714;2022-10-31T09:38:56;4.10;;;2.50;;
71648;SDS011;59492;45.638;11.714;2022-10-31T09:41:24;3.60;;;2.50;;
71648;SDS011;59492;45.638;11.714;2022-10-31T09:52:34;4.40;;;2.70;;
71648;SDS011;59492;45.638;11.714;2022-10-31T09:58:04;3.30;;;2.50;;
71648;SDS011;59492;45.638;11.714;2022-10-31T10:00:30;4.40;;;2.80;;
71648;SDS011;59492;45.638;11.714;2022-10-31T10:02:59;3.70;;;2.40;;
71648;SDS011;59492;45.638;11.714;2022-10-31T10:08:25;4.50;;;2.20;;
71648;SDS011;59492;45.638;11.714;2022-10-31T10:11:15;4.50;;;2.80;;
71648;SDS011;59492;45.638;11.714;2022-10-31T10:19:15;5.70;;;2.50;;
71648;SDS011;59492;45.638;11.714;2022-10-31T10:22:05;5.00;;;2.40;;
71648;SDS011;59492;45.638;11.714;2022-10-31T10:30:32;3.30;;;2.60;;
71648;SDS011;59492;45.638;11.714;2022-10-31T10:36:04;8.00;;;2.50;;
71648;SDS011;59492;45.638;11.714;2022-10-31T10:41:31;5.10;;;2.60;;
71648;SDS011;59492;45.638;11.714;2022-10-31T10:44:04;7.80;;;2.60;;
71648;SDS011;59492;45.638;11.714;2022-10-31T10:46:51;6.50;;;3.00;;
71648;SDS011;59492;45.638;11.714;2022-10-31T10:49:45;8.00;;;2.30;;
71648;SDS011;59492;45.638;11.714;2022-10-31T10:55:32;4.50;;;2.30;;
71648;SDS011;59492;45.638;11.714;2022-10-31T10:58:12;7.00;;;2.50;;
71648;SDS011;59492;45.638;11.714;2022-10-31T11:00:50;3.90;;;2.80;;
71648;SDS011;59492;45.638;11.714;2022-10-31T11:03:34;4.10;;;2.60;;
71648;SDS011;59492;45.638;11.714;2022-10-31T11:06:23;3.90;;;2.50;;
71648;SDS011;59492;45.638;11.714;2022-10-31T11:08:54;6.50;;;2.60;;
71648;SDS011;59492;45.638;11.714;2022-10-31T11:11:28;5.90;;;2.50;;
71648;SDS011;59492;45.638;11.714;2022-10-31T11:14:05;3.90;;;2.80;;
71648;SDS011;59492;45.638;11.714;2022-10-31T11:16:40;5.10;;;2.80;;
71648;SDS011;59492;45.638;11.714;2022-10-31T11:21:48;2.80;;;2.30;;
71648;SDS011;59492;45.638;11.714;2022-10-31T11:24:22;7.10;;;3.10;;
71648;SDS011;59492;45.638;11.714;2022-10-31T11:27:16;5.90;;;3.10;;
71648;SDS011;59492;45.638;11.714;2022-10-31T11:29:45;6.90;;;3.60;;
71648;SDS011;59492;45.638;11.714;2022-10-31T11:32:22;5.30;;;3.30;;
71648;SDS011;59492;45.638;11.714;2022-10-31T11:35:09;5.10;;;3.30;;
71648;SDS011;59492;45.638;11.714;2022-10-31T11:37:42;4.20;;;3.20;;
71648;SDS011;59492;45.638;11.714;2022-10-31T11:40:16;5.50;;;3.20;;
71648;SDS011;59492;45.638;11.714;2022-10-31T11:42:49;5.10;;;3.10;;
71648;SDS011;59492;45.638;11.714;2022-10-31T11:47:49;6.70;;;4.00;;
71648;SDS011;59492;45.638;11.714;2022-10-31T11:50:20;7.10;;;4.10;;
71648;SDS011;59492;45.638;11.714;2022-10-31T11:52:59;4.00;;;2.90;;
71648;SDS011;59492;45.638;11.714;2022-10-31T11:55:34;5.00;;;3.40;;
71648;SDS011;59492;45.638;11.714;2022-10-31T11:58:02;4.30;;;3.00;;
71648;SDS011;59492;45.638;11.714;2022-10-31T12:00:38;4.30;;;3.10;;
71648;SDS011;59492;45.638;11.714;2022-10-31T12:06:13;4.60;;;3.30;;
71648;SDS011;59492;45.638;11.714;2022-10-31T12:08:53;6.70;;;3.30;;
71648;SDS011;59492;45.638;11.714;2022-10-31T12:14:36;7.30;;;3.20;;
71648;SDS011;59492;45.638;11.714;2022-10-31T12:17:28;9.50;;;3.80;;
71648;SDS011;59492;45.638;11.714;2022-10-31T12:44:17;6.70;;;3.90;;
71648;SDS011;59492;45.638;11.714;2022-10-31T12:58:37;11.40;;;5.10;;
71648;SDS011;59492;45.638;11.714;2022-10-31T13:01:48;9.40;;;5.10;;
71648;SDS011;59492;45.638;11.714;2022-10-31T13:04:42;10.30;;;5.30;;
71648;SDS011;59492;45.638;11.714;2022-10-31T13:07:18;11.00;;;5.60;;
71648;SDS011;59492;45.638;11.714;2022-10-31T13:12:39;7.50;;;4.60;;
71648;SDS011;59492;45.638;11.714;2022-10-31T13:17:39;8.20;;;4.50;;
71648;SDS011;59492;45.638;11.714;2022-10-31T13:20:18;9.50;;;4.50;;
71648;SDS011;59492;45.638;11.714;2022-10-31T13:23:38;6.80;;;4.10;;
71648;SDS011;59492;45.638;11.714;2022-10-31T13:25:58;14.70;;;4.80;;
71648;SDS011;59492;45.638;11.714;2022-10-31T13:28:29;6.70;;;3.60;;
71648;SDS011;59492;45.638;11.714;2022-10-31T13:31:20;6.50;;;3.90;;
71648;SDS011;59492;45.638;11.714;2022-10-31T13:33:57;8.60;;;4.20;;
71648;SDS011;59492;45.638;11.714;2022-10-31T13:36:31;7.00;;;3.70;;
71648;SDS011;59492;45.638;11.714;2022-10-31T13:41:59;7.70;;;3.40;;
71648;SDS011;59492;45.638;11.714;2022-10-31T13:44:27;8.00;;;3.90;;
71648;SDS011;59492;45.638;11.714;2022-10-31T13:46:56;6.90;;;3.70;;
71648;SDS011;59492;45.638;11.714;2022-10-31T13:49:24;9.40;;;3.70;;
71648;SDS011;59492;45.638;11.714;2022-10-31T13:54:34;6.30;;;3.80;;
71648;SDS011;59492;45.638;11.714;2022-10-31T13:57:01;6.30;;;3.60;;
71648;SDS011;59492;45.638;11.714;2022-10-31T13:59:31;5.10;;;3.50;;
71648;SDS011;59492;45.638;11.714;2022-10-31T14:02:02;7.40;;;3.60;;
71648;SDS011;59492;45.638;11.714;2022-10-31T14:04:46;6.20;;;3.50;;
71648;SDS011;59492;45.638;11.714;2022-10-31T14:07:15;7.80;;;3.10;;
71648;SDS011;59492;45.638;11.714;2022-10-31T14:09:53;8.40;;;3.40;;
71648;SDS011;59492;45.638;11.714;2022-10-31T14:17:38;8.20;;;3.20;;
71648;SDS011;59492;45.638;11.714;2022-10-31T14:22:38;5.50;;;3.30;;
71648;SDS011;59492;45.638;11.714;2022-10-31T14:27:51;6.30;;;3.10;;
71648;SDS011;59492;45.638;11.714;2022-10-31T14:30:20;4.80;;;3.10;;
71648;SDS011;59492;45.638;11.714;2022-10-31T14:33:36;8.30;;;3.10;;
71648;SDS011;59492;45.638;11.714;2022-10-31T14:38:47;6.80;;;2.90;;
71648;SDS011;59492;45.638;11.714;2022-10-31T14:52:12;5.20;;;2.90;;
71648;SDS011;59492;45.638;11.714;2022-10-31T14:54:41;5.20;;;3.20;;
71648;SDS011;59492;45.638;11.714;2022-10-31T14:57:16;5.30;;;3.10;;
71648;SDS011;59492;45.638;11.714;2022-10-31T14:59:53;4.50;;;2.90;;
71648;SDS011;59492;45.638;11.714;2022-10-31T15:02:29;5.00;;;3.00;;
71648;SDS011;59492;45.638;11.714;2022-10-31T15:05:11;4.60;;;3.00;;
71648;SDS011;59492;45.638;11.714;2022-10-31T15:07:48;6.00;;;2.80;;
71648;SDS011;59492;45.638;11.714;2022-10-31T15:13:19;4.80;;;3.00;;
71648;SDS011;59492;45.638;11.714;2022-10-31T15:15:44;4.20;;;2.70;;
71648;SDS011;59492;45.638;11.714;2022-10-31T15:18:17;6.10;;;2.80;;
71648;SDS011;59492;45.638;11.714;2022-10-31T15:20:47;6.00;;;3.10;;
71648;SDS011;59492;45.638;11.714;2022-10-31T15:23:19;5.70;;;3.70;;
71648;SDS011;59492;45.638;11.714;2022-10-31T15:25:48;4.40;;;2.90;;
71648;SDS011;59492;45.638;11.714;2022-10-31T15:28:24;7.50;;;3.10;;
71648;SDS011;59492;45.638;11.714;2022-10-31T15:30:55;6.20;;;2.70;;
71648;SDS011;59492;45.638;11.714;2022-10-31T15:33:24;4.30;;;2.90;;
71648;SDS011;59492;45.638;11.714;2022-10-31T15:36:00;5.40;;;2.90;;
71648;SDS011;59492;45.638;11.714;2022-10-31T15:38:27;4.60;;;2.90;;
71648;SDS011;59492;45.638;11.714;2022-10-31T15:40:59;4.60;;;3.30;;
71648;SDS011;59492;45.638;11.714;2022-10-31T15:43:37;7.60;;;3.20;;
71648;SDS011;59492;45.638;11.714;2022-10-31T15:46:06;5.60;;;3.10;;
71648;SDS011;59492;45.638;11.714;2022-10-31T15:48:35;7.40;;;3.10;;
71648;SDS011;59492;45.638;11.714;2022-10-31T15:51:00;4.80;;;3.10;;
71648;SDS011;59492;45.638;11.714;2022-10-31T15:53:32;5.40;;;3.30;;
71648;SDS011;59492;45.638;11.714;2022-10-31T15:56:00;4.60;;;2.90;;
71648;SDS011;59492;45.638;11.714;2022-10-31T15:58:30;4.60;;;3.30;;
71648;SDS011;59492;45.638;11.714;2022-10-31T16:01:18;4.00;;;2.80;;
71648;SDS011;59492;45.638;11.714;2022-10-31T16:03:44;6.40;;;3.00;;
71648;SDS011;59492;45.638;11.714;2022-10-31T16:06:21;7.70;;;3.20;;
71648;SDS011;59492;45.638;11.714;2022-10-31T16:08:48;6.10;;;2.90;;
71648;SDS011;59492;45.638;11.714;2022-10-31T16:11:21;5.10;;;2.90;;
71648;SDS011;59492;45.638;11.714;2022-10-31T16:16:42;3.50;;;2.80;;
71648;SDS011;59492;45.638;11.714;2022-10-31T16:21:45;4.00;;;3.00;;
71648;SDS011;59492;45.638;11.714;2022-10-31T16:24:17;5.00;;;3.00;;
71648;SDS011;59492;45.638;11.714;2022-10-31T16:26:54;4.30;;;3.10;;
71648;SDS011;59492;45.638;11.714;2022-10-31T16:29:28;5.10;;;3.00;;
71648;SDS011;59492;45.638;11.714;2022-10-31T16:32:30;10.30;;;3.00;;
71648;SDS011;59492;45.638;11.714;2022-10-31T16:35:18;4.20;;;3.40;;
71648;SDS011;59492;45.638;11.714;2022-10-31T16:37:58;7.10;;;3.30;;
71648;SDS011;59492;45.638;11.714;2022-10-31T16:40:24;4.10;;;3.00;;
71648;SDS011;59492;45.638;11.714;2022-10-31T16:42:50;6.50;;;3.10;;
71648;SDS011;59492;45.638;11.714;2022-10-31T16:45:18;3.60;;;2.80;;
71648;SDS011;59492;45.638;11.714;2022-10-31T16:47:46;4.10;;;2.90;;
71648;SDS011;59492;45.638;11.714;2022-10-31T16:50:14;7.50;;;3.60;;
71648;SDS011;59492;45.638;11.714;2022-10-31T16:52:44;5.80;;;3.20;;
71648;SDS011;59492;45.638;11.714;2022-10-31T16:55:12;7.10;;;3.50;;
71648;SDS011;59492;45.638;11.714;2022-10-31T16:57:40;7.10;;;3.00;;
71648;SDS011;59492;45.638;11.714;2022-10-31T17:00:12;8.60;;;3.10;;
71648;SDS011;59492;45.638;11.714;2022-10-31T17:02:39;5.90;;;3.30;;
71648;SDS011;59492;45.638;11.714;2022-10-31T17:05:05;7.30;;;3.00;;
71648;SDS011;59492;45.638;11.714;2022-10-31T17:07:30;4.10;;;2.90;;
71648;SDS011;59492;45.638;11.714;2022-10-31T17:09:56;3.70;;;2.70;;
71648;SDS011;59492;45.638;11.714;2022-10-31T17:12:22;7.40;;;3.20;;
71648;SDS011;59492;45.638;11.714;2022-10-31T17:14:51;7.90;;;3.50;;
71648;SDS011;59492;45.638;11.714;2022-10-31T17:17:17;7.20;;;3.50;;
71648;SDS011;59492;45.638;11.714;2022-10-31T17:19:42;11.80;;;3.20;;
71648;SDS011;59492;45.638;11.714;2022-10-31T17:22:10;5.40;;;3.60;;
71648;SDS011;59492;45.638;11.714;2022-10-31T17:24:37;6.30;;;3.50;;
71648;SDS011;59492;45.638;11.714;2022-10-31T17:27:02;5.80;;;3.30;;
71648;SDS011;59492;45.638;11.714;2022-10-31T17:29:28;5.80;;;2.90;;
71648;SDS011;59492;45.638;11.714;2022-10-31T17:31:54;5.30;;;3.80;;
71648;SDS011;59492;45.638;11.714;2022-10-31T17:34:19;5.40;;;3.60;;
71648;SDS011;59492;45.638;11.714;2022-10-31T17:36:49;5.70;;;3.30;;
71648;SDS011;59492;45.638;11.714;2022-10-31T17:39:15;9.60;;;3.70;;
71648;SDS011;59492;45.638;11.714;2022-10-31T17:41:41;7.00;;;3.80;;
71648;SDS011;59492;45.638;11.714;2022-10-31T17:44:08;5.00;;;2.90;;